sensor_id;sensor_type;location;lat;lon;timestamp;temperature;humidity
73955;DHT22;62306;52.516;13.290;2023-07-30T00:02:15;18.30;99.90
73955;DHT22;62306;52.516;13.290;2023-07-30T00:04:42;18.30;99.90
73955;DHT22;62306;52.516;13.290;2023-07-30T00:07:09;18.20;99.90
73955;DHT22;62306;52.516;13.290;2023-07-30T00:09:36;18.20;99.90
73955;DHT22;62306;52.516;13.290;2023-07-30T00:12:05;18.20;99.90
73955;DHT22;62306;52.516;13.290;2023-07-30T00:14:32;18.20;99.90
73955;DHT22;62306;52.516;13.290;2023-07-30T00:16:59;18.20;99.90
73955;DHT22;62306;52.516;13.290;2023-07-30T00:19:26;18.30;99.90
73955;DHT22;62306;52.516;13.290;2023-07-30T00:21:52;18.30;99.90
73955;DHT22;62306;52.516;13.290;2023-07-30T00:24:19;18.20;99.90
73955;DHT22;62306;52.516;13.290;2023-07-30T00:26:46;18.20;99.90
73955;DHT22;62306;52.516;13.290;2023-07-30T00:29:14;18.10;99.90
73955;DHT22;62306;52.516;13.290;2023-07-30T00:31:41;18.10;99.90
73955;DHT22;62306;52.516;13.290;2023-07-30T00:34:08;18.10;99.90
73955;DHT22;62306;52.516;13.290;2023-07-30T00:36:34;18.00;99.90
73955;DHT22;62306;52.516;13.290;2023-07-30T00:39:01;18.00;99.90
73955;DHT22;62306;52.516;13.290;2023-07-30T00:41:28;18.00;99.90
73955;DHT22;62306;52.516;13.290;2023-07-30T00:43:55;18.00;99.90
73955;DHT22;62306;52.516;13.290;2023-07-30T00:46:23;17.90;99.90
73955;DHT22;62306;52.516;13.290;2023-07-30T00:48:50;17.90;99.90
73955;DHT22;62306;52.516;13.290;2023-07-30T00:51:17;17.90;99.90
73955;DHT22;62306;52.516;13.290;2023-07-30T00:53:45;17.90;99.90
73955;DHT22;62306;52.516;13.290;2023-07-30T00:56:12;17.90;99.90
73955;DHT22;62306;52.516;13.290;2023-07-30T00:58:39;17.90;99.90
73955;DHT22;62306;52.516;13.290;2023-07-30T01:01:07;17.90;99.90
73955;DHT22;62306;52.516;13.290;2023-07-30T01:03:35;17.80;99.90
73955;DHT22;62306;52.516;13.290;2023-07-30T01:06:03;17.70;99.90
73955;DHT22;62306;52.516;13.290;2023-07-30T01:08:30;17.70;99.90
73955;DHT22;62306;52.516;13.290;2023-07-30T01:10:57;17.60;99.90
73955;DHT22;62306;52.516;13.290;2023-07-30T01:13:25;17.60;99.90
73955;DHT22;62306;52.516;13.290;2023-07-30T01:15:52;17.60;99.90
73955;DHT22;62306;52.516;13.290;2023-07-30T01:18:19;17.50;99.90
73955;DHT22;62306;52.516;13.290;2023-07-30T01:20:47;17.50;99.90
73955;DHT22;62306;52.516;13.290;2023-07-30T01:23:15;17.50;99.90
73955;DHT22;62306;52.516;13.290;2023-07-30T01:25:43;17.40;99.90
73955;DHT22;62306;52.516;13.290;2023-07-30T01:28:13;17.40;99.90
73955;DHT22;62306;52.516;13.290;2023-07-30T01:30:45;17.40;99.90
73955;DHT22;62306;52.516;13.290;2023-07-30T01:33:14;17.50;99.90
73955;DHT22;62306;52.516;13.290;2023-07-30T01:35:44;17.50;99.90
73955;DHT22;62306;52.516;13.290;2023-07-30T01:38:11;17.60;99.90
73955;DHT22;62306;52.516;13.290;2023-07-30T01:40:40;17.60;99.90
73955;DHT22;62306;52.516;13.290;2023-07-30T01:43:07;17.60;99.90
73955;DHT22;62306;52.516;13.290;2023-07-30T01:45:34;17.60;99.90
73955;DHT22;62306;52.516;13.290;2023-07-30T01:48:01;17.60;99.90
73955;DHT22;62306;52.516;13.290;2023-07-30T01:50:28;17.60;99.90
73955;DHT22;62306;52.516;13.290;2023-07-30T01:52:55;17.60;99.90
73955;DHT22;62306;52.516;13.290;2023-07-30T01:55:22;17.50;99.90
73955;DHT22;62306;52.516;13.290;2023-07-30T01:57:50;17.50;99.90
73955;DHT22;62306;52.516;13.290;2023-07-30T02:00:17;17.50;99.90
73955;DHT22;62306;52.516;13.290;2023-07-30T02:02:45;17.40;99.90
73955;DHT22;62306;52.516;13.290;2023-07-30T02:05:11;17.50;99.90
73955;DHT22;62306;52.516;13.290;2023-07-30T02:07:38;17.50;99.90
73955;DHT22;62306;52.516;13.290;2023-07-30T02:10:06;17.50;99.90
73955;DHT22;62306;52.516;13.290;2023-07-30T02:12:33;17.50;99.90
73955;DHT22;62306;52.516;13.290;2023-07-30T02:15:01;17.50;99.90
73955;DHT22;62306;52.516;13.290;2023-07-30T02:17:28;17.50;99.90
73955;DHT22;62306;52.516;13.290;2023-07-30T02:19:55;17.40;99.90
73955;DHT22;62306;52.516;13.290;2023-07-30T02:22:22;17.40;99.90
73955;DHT22;62306;52.516;13.290;2023-07-30T02:24:49;17.40;99.90
73955;DHT22;62306;52.516;13.290;2023-07-30T02:27:16;17.30;99.90
73955;DHT22;62306;52.516;13.290;2023-07-30T02:29:43;17.30;99.90
73955;DHT22;62306;52.516;13.290;2023-07-30T02:32:11;17.30;99.90
73955;DHT22;62306;52.516;13.290;2023-07-30T02:34:38;17.30;99.90
73955;DHT22;62306;52.516;13.290;2023-07-30T02:37:05;17.30;99.90
73955;DHT22;62306;52.516;13.290;2023-07-30T02:39:32;17.40;99.90
73955;DHT22;62306;52.516;13.290;2023-07-30T02:41:59;17.40;99.90
73955;DHT22;62306;52.516;13.290;2023-07-30T02:44:26;17.50;99.90
73955;DHT22;62306;52.516;13.290;2023-07-30T02:46:53;17.50;99.90
73955;DHT22;62306;52.516;13.290;2023-07-30T02:49:21;17.40;99.90
73955;DHT22;62306;52.516;13.290;2023-07-30T02:51:48;17.40;99.90
73955;DHT22;62306;52.516;13.290;2023-07-30T02:54:15;17.40;99.90
73955;DHT22;62306;52.516;13.290;2023-07-30T02:56:43;17.40;99.90
73955;DHT22;62306;52.516;13.290;2023-07-30T02:59:11;17.30;99.90
73955;DHT22;62306;52.516;13.290;2023-07-30T03:01:38;17.30;99.90
73955;DHT22;62306;52.516;13.290;2023-07-30T03:04:05;17.30;99.90
73955;DHT22;62306;52.516;13.290;2023-07-30T03:06:33;17.30;99.90
73955;DHT22;62306;52.516;13.290;2023-07-30T03:09:00;17.30;99.90
73955;DHT22;62306;52.516;13.290;2023-07-30T03:11:28;17.30;99.90
73955;DHT22;62306;52.516;13.290;2023-07-30T03:13:55;17.30;99.90
73955;DHT22;62306;52.516;13.290;2023-07-30T03:16:22;17.30;99.90
73955;DHT22;62306;52.516;13.290;2023-07-30T03:18:49;17.30;99.90
73955;DHT22;62306;52.516;13.290;2023-07-30T03:21:16;17.30;99.90
73955;DHT22;62306;52.516;13.290;2023-07-30T03:23:44;17.30;99.90
73955;DHT22;62306;52.516;13.290;2023-07-30T03:26:14;17.30;99.90
73955;DHT22;62306;52.516;13.290;2023-07-30T03:28:40;17.30;99.90
73955;DHT22;62306;52.516;13.290;2023-07-30T03:31:07;17.20;99.90
73955;DHT22;62306;52.516;13.290;2023-07-30T03:33:34;17.20;99.90
73955;DHT22;62306;52.516;13.290;2023-07-30T03:36:01;17.20;99.90
73955;DHT22;62306;52.516;13.290;2023-07-30T03:38:28;17.10;99.90
73955;DHT22;62306;52.516;13.290;2023-07-30T03:40:57;17.20;99.90
73955;DHT22;62306;52.516;13.290;2023-07-30T03:43:24;17.20;99.90
73955;DHT22;62306;52.516;13.290;2023-07-30T03:45:51;17.10;99.90
73955;DHT22;62306;52.516;13.290;2023-07-30T03:48:18;17.20;99.90
73955;DHT22;62306;52.516;13.290;2023-07-30T03:50:44;17.20;99.90
73955;DHT22;62306;52.516;13.290;2023-07-30T03:53:11;17.20;99.90
73955;DHT22;62306;52.516;13.290;2023-07-30T03:55:38;17.20;99.90
73955;DHT22;62306;52.516;13.290;2023-07-30T03:58:07;17.30;99.90
73955;DHT22;62306;52.516;13.290;2023-07-30T04:00:34;17.30;99.90
73955;DHT22;62306;52.516;13.290;2023-07-30T04:03:01;17.40;99.90
73955;DHT22;62306;52.516;13.290;2023-07-30T04:05:28;17.40;99.90
73955;DHT22;62306;52.516;13.290;2023-07-30T04:07:55;17.50;99.90
73955;DHT22;62306;52.516;13.290;2023-07-30T04:10:22;17.60;99.90
73955;DHT22;62306;52.516;13.290;2023-07-30T04:12:49;17.70;99.90
73955;DHT22;62306;52.516;13.290;2023-07-30T04:15:17;17.80;99.90
73955;DHT22;62306;52.516;13.290;2023-07-30T04:17:44;17.90;99.90
73955;DHT22;62306;52.516;13.290;2023-07-30T04:20:11;17.90;99.90
73955;DHT22;62306;52.516;13.290;2023-07-30T04:22:38;17.90;99.90
73955;DHT22;62306;52.516;13.290;2023-07-30T04:25:08;17.90;99.90
73955;DHT22;62306;52.516;13.290;2023-07-30T04:27:36;17.90;99.90
73955;DHT22;62306;52.516;13.290;2023-07-30T04:30:04;17.90;99.90
73955;DHT22;62306;52.516;13.290;2023-07-30T04:32:32;17.90;99.90
73955;DHT22;62306;52.516;13.290;2023-07-30T04:34:59;17.90;99.90
73955;DHT22;62306;52.516;13.290;2023-07-30T04:37:26;17.90;99.90
73955;DHT22;62306;52.516;13.290;2023-07-30T04:39:53;18.10;99.90
73955;DHT22;62306;52.516;13.290;2023-07-30T04:42:20;18.20;99.90
73955;DHT22;62306;52.516;13.290;2023-07-30T04:44:47;18.20;99.90
73955;DHT22;62306;52.516;13.290;2023-07-30T04:47:14;18.30;99.90
73955;DHT22;62306;52.516;13.290;2023-07-30T04:49:43;18.40;99.90
73955;DHT22;62306;52.516;13.290;2023-07-30T04:52:10;18.40;99.90
73955;DHT22;62306;52.516;13.290;2023-07-30T04:54:37;18.50;99.90
73955;DHT22;62306;52.516;13.290;2023-07-30T04:57:05;18.60;99.90
73955;DHT22;62306;52.516;13.290;2023-07-30T04:59:32;18.70;99.90
73955;DHT22;62306;52.516;13.290;2023-07-30T05:01:59;18.70;99.90
73955;DHT22;62306;52.516;13.290;2023-07-30T05:04:26;18.80;99.90
73955;DHT22;62306;52.516;13.290;2023-07-30T05:06:54;18.80;99.90
73955;DHT22;62306;52.516;13.290;2023-07-30T05:09:21;18.80;99.90
73955;DHT22;62306;52.516;13.290;2023-07-30T05:11:48;18.90;99.90
73955;DHT22;62306;52.516;13.290;2023-07-30T05:14:15;18.90;99.90
73955;DHT22;62306;52.516;13.290;2023-07-30T05:16:42;19.00;99.90
73955;DHT22;62306;52.516;13.290;2023-07-30T05:19:09;19.10;99.90
73955;DHT22;62306;52.516;13.290;2023-07-30T05:21:36;19.30;99.90
73955;DHT22;62306;52.516;13.290;2023-07-30T05:24:05;20.20;99.90
73955;DHT22;62306;52.516;13.290;2023-07-30T05:26:32;21.40;99.90
73955;DHT22;62306;52.516;13.290;2023-07-30T05:28:58;22.70;99.90
73955;DHT22;62306;52.516;13.290;2023-07-30T05:31:25;24.10;99.90
73955;DHT22;62306;52.516;13.290;2023-07-30T05:33:53;24.60;99.90
73955;DHT22;62306;52.516;13.290;2023-07-30T05:36:20;24.00;99.90
73955;DHT22;62306;52.516;13.290;2023-07-30T05:38:47;23.30;99.90
73955;DHT22;62306;52.516;13.290;2023-07-30T05:41:16;22.40;99.90
73955;DHT22;62306;52.516;13.290;2023-07-30T05:43:42;21.80;99.90
73955;DHT22;62306;52.516;13.290;2023-07-30T05:46:10;21.40;99.90
73955;DHT22;62306;52.516;13.290;2023-07-30T05:48:37;21.10;99.90
73955;DHT22;62306;52.516;13.290;2023-07-30T05:51:04;21.10;99.90
73955;DHT22;62306;52.516;13.290;2023-07-30T05:53:31;21.10;99.90
73955;DHT22;62306;52.516;13.290;2023-07-30T05:55:58;21.30;99.90
73955;DHT22;62306;52.516;13.290;2023-07-30T05:58:26;22.10;99.90
73955;DHT22;62306;52.516;13.290;2023-07-30T06:00:53;23.30;99.90
73955;DHT22;62306;52.516;13.290;2023-07-30T06:03:20;24.80;99.90
73955;DHT22;62306;52.516;13.290;2023-07-30T06:05:47;25.70;98.90
73955;DHT22;62306;52.516;13.290;2023-07-30T06:08:14;26.60;96.90
73955;DHT22;62306;52.516;13.290;2023-07-30T06:10:41;27.00;95.10
73955;DHT22;62306;52.516;13.290;2023-07-30T06:13:08;27.60;93.60
73955;DHT22;62306;52.516;13.290;2023-07-30T06:15:36;27.90;91.80
73955;DHT22;62306;52.516;13.290;2023-07-30T06:18:03;27.60;91.60
73955;DHT22;62306;52.516;13.290;2023-07-30T06:20:31;27.10;92.30
73955;DHT22;62306;52.516;13.290;2023-07-30T06:22:58;27.20;92.40
73955;DHT22;62306;52.516;13.290;2023-07-30T06:25:25;26.70;93.00
73955;DHT22;62306;52.516;13.290;2023-07-30T06:27:51;26.10;94.10
73955;DHT22;62306;52.516;13.290;2023-07-30T06:30:19;25.50;95.40
73955;DHT22;62306;52.516;13.290;2023-07-30T06:32:48;25.00;96.10
73955;DHT22;62306;52.516;13.290;2023-07-30T06:35:15;24.50;97.80
73955;DHT22;62306;52.516;13.290;2023-07-30T06:37:42;24.90;98.30
73955;DHT22;62306;52.516;13.290;2023-07-30T06:40:09;25.10;97.80
73955;DHT22;62306;52.516;13.290;2023-07-30T06:42:36;25.20;97.60
73955;DHT22;62306;52.516;13.290;2023-07-30T06:45:04;24.70;98.00
73955;DHT22;62306;52.516;13.290;2023-07-30T06:47:31;24.30;98.60
73955;DHT22;62306;52.516;13.290;2023-07-30T06:49:59;23.80;99.90
73955;DHT22;62306;52.516;13.290;2023-07-30T06:52:26;23.80;99.90
73955;DHT22;62306;52.516;13.290;2023-07-30T06:54:53;24.00;99.90
73955;DHT22;62306;52.516;13.290;2023-07-30T06:57:20;23.60;99.90
73955;DHT22;62306;52.516;13.290;2023-07-30T06:59:47;24.10;99.90
73955;DHT22;62306;52.516;13.290;2023-07-30T07:02:14;24.30;99.90
73955;DHT22;62306;52.516;13.290;2023-07-30T07:04:41;24.80;99.90
73955;DHT22;62306;52.516;13.290;2023-07-30T07:07:09;25.10;99.00
73955;DHT22;62306;52.516;13.290;2023-07-30T07:09:36;25.10;98.80
73955;DHT22;62306;52.516;13.290;2023-07-30T07:12:04;25.20;98.60
73955;DHT22;62306;52.516;13.290;2023-07-30T07:14:31;25.40;98.20
73955;DHT22;62306;52.516;13.290;2023-07-30T07:16:58;25.40;98.20
73955;DHT22;62306;52.516;13.290;2023-07-30T07:19:25;25.30;98.20
73955;DHT22;62306;52.516;13.290;2023-07-30T07:21:52;25.40;97.60
73955;DHT22;62306;52.516;13.290;2023-07-30T07:24:21;25.80;97.30
73955;DHT22;62306;52.516;13.290;2023-07-30T07:26:48;25.80;96.50
73955;DHT22;62306;52.516;13.290;2023-07-30T07:29:15;26.00;96.50
73955;DHT22;62306;52.516;13.290;2023-07-30T07:31:42;26.10;96.30
73955;DHT22;62306;52.516;13.290;2023-07-30T07:34:09;26.30;96.30
73955;DHT22;62306;52.516;13.290;2023-07-30T07:36:37;26.20;95.60
73955;DHT22;62306;52.516;13.290;2023-07-30T07:39:04;26.10;96.00
73955;DHT22;62306;52.516;13.290;2023-07-30T07:41:32;26.20;96.20
73955;DHT22;62306;52.516;13.290;2023-07-30T07:43:59;26.40;96.10
73955;DHT22;62306;52.516;13.290;2023-07-30T07:46:26;26.40;95.70
73955;DHT22;62306;52.516;13.290;2023-07-30T07:48:53;26.70;95.40
73955;DHT22;62306;52.516;13.290;2023-07-30T07:51:20;27.00;95.00
73955;DHT22;62306;52.516;13.290;2023-07-30T07:53:47;27.40;94.10
73955;DHT22;62306;52.516;13.290;2023-07-30T07:56:14;27.40;94.40
73955;DHT22;62306;52.516;13.290;2023-07-30T07:58:43;27.40;93.50
73955;DHT22;62306;52.516;13.290;2023-07-30T08:01:10;27.20;93.40
73955;DHT22;62306;52.516;13.290;2023-07-30T08:03:37;27.20;93.40
73955;DHT22;62306;52.516;13.290;2023-07-30T08:06:05;26.70;94.20
73955;DHT22;62306;52.516;13.290;2023-07-30T08:08:33;26.20;94.10
73955;DHT22;62306;52.516;13.290;2023-07-30T08:11:05;25.70;95.90
73955;DHT22;62306;52.516;13.290;2023-07-30T08:13:32;25.80;96.50
73955;DHT22;62306;52.516;13.290;2023-07-30T08:16:00;26.20;95.60
73955;DHT22;62306;52.516;13.290;2023-07-30T08:18:28;26.30;95.50
73955;DHT22;62306;52.516;13.290;2023-07-30T08:20:55;26.40;94.70
73955;DHT22;62306;52.516;13.290;2023-07-30T08:23:22;26.30;94.60
73955;DHT22;62306;52.516;13.290;2023-07-30T08:25:49;26.50;94.70
73955;DHT22;62306;52.516;13.290;2023-07-30T08:28:16;26.60;94.30
73955;DHT22;62306;52.516;13.290;2023-07-30T08:30:43;26.20;92.40
73955;DHT22;62306;52.516;13.290;2023-07-30T08:33:12;25.70;93.60
73955;DHT22;62306;52.516;13.290;2023-07-30T08:35:39;25.60;94.00
73955;DHT22;62306;52.516;13.290;2023-07-30T08:38:06;25.70;93.70
73955;DHT22;62306;52.516;13.290;2023-07-30T08:40:33;25.60;93.80
73955;DHT22;62306;52.516;13.290;2023-07-30T08:43:02;25.80;93.70
73955;DHT22;62306;52.516;13.290;2023-07-30T08:45:30;26.10;91.90
73955;DHT22;62306;52.516;13.290;2023-07-30T08:47:57;26.10;91.50
73955;DHT22;62306;52.516;13.290;2023-07-30T08:50:26;26.00;91.90
73955;DHT22;62306;52.516;13.290;2023-07-30T08:52:55;25.80;91.30
73955;DHT22;62306;52.516;13.290;2023-07-30T08:55:23;25.60;91.60
73955;DHT22;62306;52.516;13.290;2023-07-30T08:57:51;25.70;90.10
73955;DHT22;62306;52.516;13.290;2023-07-30T09:00:19;25.80;90.00
73955;DHT22;62306;52.516;13.290;2023-07-30T09:02:52;26.00;88.90
73955;DHT22;62306;52.516;13.290;2023-07-30T09:05:21;26.00;87.00
73955;DHT22;62306;52.516;13.290;2023-07-30T09:07:49;26.00;87.80
73955;DHT22;62306;52.516;13.290;2023-07-30T09:10:16;26.30;88.40
73955;DHT22;62306;52.516;13.290;2023-07-30T09:12:43;26.90;86.80
73955;DHT22;62306;52.516;13.290;2023-07-30T09:15:10;27.20;85.00
73955;DHT22;62306;52.516;13.290;2023-07-30T09:17:38;27.30;82.10
73955;DHT22;62306;52.516;13.290;2023-07-30T09:20:06;27.50;81.50
73955;DHT22;62306;52.516;13.290;2023-07-30T09:22:34;27.70;80.80
73955;DHT22;62306;52.516;13.290;2023-07-30T09:25:07;27.90;80.20
73955;DHT22;62306;52.516;13.290;2023-07-30T09:27:34;28.10;78.60
73955;DHT22;62306;52.516;13.290;2023-07-30T09:30:02;28.40;77.30
73955;DHT22;62306;52.516;13.290;2023-07-30T09:32:32;28.30;76.10
73955;DHT22;62306;52.516;13.290;2023-07-30T09:35:04;27.90;74.10
73955;DHT22;62306;52.516;13.290;2023-07-30T09:37:35;27.60;76.00
73955;DHT22;62306;52.516;13.290;2023-07-30T09:40:03;27.60;76.30
73955;DHT22;62306;52.516;13.290;2023-07-30T09:42:32;27.80;74.70
73955;DHT22;62306;52.516;13.290;2023-07-30T09:45:01;27.90;74.10
73955;DHT22;62306;52.516;13.290;2023-07-30T09:47:30;27.70;74.80
73955;DHT22;62306;52.516;13.290;2023-07-30T09:49:57;27.50;74.50
73955;DHT22;62306;52.516;13.290;2023-07-30T09:52:24;27.10;75.70
73955;DHT22;62306;52.516;13.290;2023-07-30T09:54:52;27.00;77.70
73955;DHT22;62306;52.516;13.290;2023-07-30T09:57:19;26.50;79.70
73955;DHT22;62306;52.516;13.290;2023-07-30T09:59:47;26.70;78.20
73955;DHT22;62306;52.516;13.290;2023-07-30T10:02:16;26.80;74.30
73955;DHT22;62306;52.516;13.290;2023-07-30T10:04:48;26.60;76.50
73955;DHT22;62306;52.516;13.290;2023-07-30T10:07:20;26.40;77.60
73955;DHT22;62306;52.516;13.290;2023-07-30T10:09:48;26.60;74.80
73955;DHT22;62306;52.516;13.290;2023-07-30T10:12:22;26.70;74.30
73955;DHT22;62306;52.516;13.290;2023-07-30T10:14:51;27.00;73.70
73955;DHT22;62306;52.516;13.290;2023-07-30T10:17:19;26.90;73.30
73955;DHT22;62306;52.516;13.290;2023-07-30T10:19:47;26.70;73.60
73955;DHT22;62306;52.516;13.290;2023-07-30T10:22:22;26.50;73.70
73955;DHT22;62306;52.516;13.290;2023-07-30T10:24:58;26.20;74.10
73955;DHT22;62306;52.516;13.290;2023-07-30T10:27:27;26.00;75.40
73955;DHT22;62306;52.516;13.290;2023-07-30T10:30:10;25.80;76.50
73955;DHT22;62306;52.516;13.290;2023-07-30T10:32:41;25.70;77.20
73955;DHT22;62306;52.516;13.290;2023-07-30T10:35:08;25.80;76.80
73955;DHT22;62306;52.516;13.290;2023-07-30T10:37:35;25.80;76.00
73955;DHT22;62306;52.516;13.290;2023-07-30T10:40:16;26.00;76.00
73955;DHT22;62306;52.516;13.290;2023-07-30T10:42:44;26.20;76.70
73955;DHT22;62306;52.516;13.290;2023-07-30T10:45:13;26.60;74.50
73955;DHT22;62306;52.516;13.290;2023-07-30T10:47:41;26.70;73.30
73955;DHT22;62306;52.516;13.290;2023-07-30T10:50:09;26.80;70.80
73955;DHT22;62306;52.516;13.290;2023-07-30T10:52:38;26.70;71.60
73955;DHT22;62306;52.516;13.290;2023-07-30T10:55:06;26.70;71.60
73955;DHT22;62306;52.516;13.290;2023-07-30T10:57:33;27.00;70.90
73955;DHT22;62306;52.516;13.290;2023-07-30T11:00:00;27.20;69.40
73955;DHT22;62306;52.516;13.290;2023-07-30T11:02:29;27.10;68.30
73955;DHT22;62306;52.516;13.290;2023-07-30T11:04:56;27.00;66.50
73955;DHT22;62306;52.516;13.290;2023-07-30T11:07:23;27.20;66.10
73955;DHT22;62306;52.516;13.290;2023-07-30T11:09:58;27.20;65.50
73955;DHT22;62306;52.516;13.290;2023-07-30T11:12:27;27.30;65.60
73955;DHT22;62306;52.516;13.290;2023-07-30T11:15:01;27.50;65.50
73955;DHT22;62306;52.516;13.290;2023-07-30T11:17:29;27.70;65.40
73955;DHT22;62306;52.516;13.290;2023-07-30T11:19:56;27.90;64.80
73955;DHT22;62306;52.516;13.290;2023-07-30T11:22:29;27.70;61.00
73955;DHT22;62306;52.516;13.290;2023-07-30T11:24:57;27.50;60.70
73955;DHT22;62306;52.516;13.290;2023-07-30T11:27:24;27.30;58.60
73955;DHT22;62306;52.516;13.290;2023-07-30T11:29:55;27.00;59.20
73955;DHT22;62306;52.516;13.290;2023-07-30T11:32:22;26.90;60.80
73955;DHT22;62306;52.516;13.290;2023-07-30T11:34:52;26.90;62.00
73955;DHT22;62306;52.516;13.290;2023-07-30T11:37:20;27.00;62.00
73955;DHT22;62306;52.516;13.290;2023-07-30T11:39:48;27.00;62.40
73955;DHT22;62306;52.516;13.290;2023-07-30T11:42:15;27.00;61.60
73955;DHT22;62306;52.516;13.290;2023-07-30T11:44:42;26.90;62.30
73955;DHT22;62306;52.516;13.290;2023-07-30T11:47:09;26.80;63.40
73955;DHT22;62306;52.516;13.290;2023-07-30T11:49:36;26.70;61.40
73955;DHT22;62306;52.516;13.290;2023-07-30T11:52:09;26.70;62.80
73955;DHT22;62306;52.516;13.290;2023-07-30T11:54:36;26.70;62.50
73955;DHT22;62306;52.516;13.290;2023-07-30T11:57:03;26.70;62.30
73955;DHT22;62306;52.516;13.290;2023-07-30T11:59:31;26.70;61.10
73955;DHT22;62306;52.516;13.290;2023-07-30T12:01:58;26.70;61.60
73955;DHT22;62306;52.516;13.290;2023-07-30T12:04:25;26.70;60.90
73955;DHT22;62306;52.516;13.290;2023-07-30T12:06:56;26.60;62.30
73955;DHT22;62306;52.516;13.290;2023-07-30T12:09:25;26.60;62.00
73955;DHT22;62306;52.516;13.290;2023-07-30T12:11:53;26.70;62.80
73955;DHT22;62306;52.516;13.290;2023-07-30T12:14:22;26.80;62.00
73955;DHT22;62306;52.516;13.290;2023-07-30T12:16:51;26.80;62.40
73955;DHT22;62306;52.516;13.290;2023-07-30T12:19:18;26.80;60.30
73955;DHT22;62306;52.516;13.290;2023-07-30T12:21:45;26.60;60.90
73955;DHT22;62306;52.516;13.290;2023-07-30T12:24:12;26.50;62.40
73955;DHT22;62306;52.516;13.290;2023-07-30T12:26:40;26.50;62.70
73955;DHT22;62306;52.516;13.290;2023-07-30T12:29:07;26.50;63.60
73955;DHT22;62306;52.516;13.290;2023-07-30T12:31:34;26.60;62.80
73955;DHT22;62306;52.516;13.290;2023-07-30T12:34:01;26.70;62.80
73955;DHT22;62306;52.516;13.290;2023-07-30T12:36:28;26.90;63.50
73955;DHT22;62306;52.516;13.290;2023-07-30T12:38:55;27.00;62.60
73955;DHT22;62306;52.516;13.290;2023-07-30T12:41:22;27.10;63.30
73955;DHT22;62306;52.516;13.290;2023-07-30T12:43:53;27.10;62.80
73955;DHT22;62306;52.516;13.290;2023-07-30T12:46:21;27.10;62.70
73955;DHT22;62306;52.516;13.290;2023-07-30T12:48:48;27.00;62.20
73955;DHT22;62306;52.516;13.290;2023-07-30T12:51:16;27.10;63.00
73955;DHT22;62306;52.516;13.290;2023-07-30T12:53:43;27.20;63.10
73955;DHT22;62306;52.516;13.290;2023-07-30T12:56:10;27.30;62.60
73955;DHT22;62306;52.516;13.290;2023-07-30T12:58:37;27.30;61.00
73955;DHT22;62306;52.516;13.290;2023-07-30T13:01:07;27.30;61.00
73955;DHT22;62306;52.516;13.290;2023-07-30T13:03:34;27.20;60.70
73955;DHT22;62306;52.516;13.290;2023-07-30T13:06:01;27.20;60.90
73955;DHT22;62306;52.516;13.290;2023-07-30T13:08:28;27.30;60.10
73955;DHT22;62306;52.516;13.290;2023-07-30T13:10:55;27.30;59.30
73955;DHT22;62306;52.516;13.290;2023-07-30T13:13:22;27.40;59.40
73955;DHT22;62306;52.516;13.290;2023-07-30T13:15:49;27.40;58.20
73955;DHT22;62306;52.516;13.290;2023-07-30T13:18:18;27.40;57.80
73955;DHT22;62306;52.516;13.290;2023-07-30T13:20:45;27.30;57.70
73955;DHT22;62306;52.516;13.290;2023-07-30T13:23:12;27.30;58.10
73955;DHT22;62306;52.516;13.290;2023-07-30T13:25:38;27.40;56.70
73955;DHT22;62306;52.516;13.290;2023-07-30T13:28:05;27.30;56.90
73955;DHT22;62306;52.516;13.290;2023-07-30T13:30:32;27.30;56.40
73955;DHT22;62306;52.516;13.290;2023-07-30T13:32:59;27.20;56.50
73955;DHT22;62306;52.516;13.290;2023-07-30T13:35:28;26.90;57.20
73955;DHT22;62306;52.516;13.290;2023-07-30T13:37:54;26.90;57.00
73955;DHT22;62306;52.516;13.290;2023-07-30T13:40:22;26.70;56.30
73955;DHT22;62306;52.516;13.290;2023-07-30T13:42:49;26.60;57.10
73955;DHT22;62306;52.516;13.290;2023-07-30T13:45:17;26.50;57.00
73955;DHT22;62306;52.516;13.290;2023-07-30T13:47:44;26.60;57.20
73955;DHT22;62306;52.516;13.290;2023-07-30T13:50:11;26.70;55.20
73955;DHT22;62306;52.516;13.290;2023-07-30T13:52:39;26.60;55.70
73955;DHT22;62306;52.516;13.290;2023-07-30T13:55:07;26.60;56.70
73955;DHT22;62306;52.516;13.290;2023-07-30T13:57:34;26.40;57.50
73955;DHT22;62306;52.516;13.290;2023-07-30T14:00:01;26.40;58.00
73955;DHT22;62306;52.516;13.290;2023-07-30T14:02:28;26.30;58.40
73955;DHT22;62306;52.516;13.290;2023-07-30T14:04:55;26.20;58.30
73955;DHT22;62306;52.516;13.290;2023-07-30T14:07:21;26.00;59.00
73955;DHT22;62306;52.516;13.290;2023-07-30T14:09:50;25.90;60.00
73955;DHT22;62306;52.516;13.290;2023-07-30T14:12:17;25.90;59.60
73955;DHT22;62306;52.516;13.290;2023-07-30T14:14:44;25.80;59.20
73955;DHT22;62306;52.516;13.290;2023-07-30T14:17:10;25.60;59.60
73955;DHT22;62306;52.516;13.290;2023-07-30T14:19:37;25.50;59.70
73955;DHT22;62306;52.516;13.290;2023-07-30T14:22:05;25.30;60.40
73955;DHT22;62306;52.516;13.290;2023-07-30T14:24:32;25.20;62.50
73955;DHT22;62306;52.516;13.290;2023-07-30T14:27:01;25.10;63.20
73955;DHT22;62306;52.516;13.290;2023-07-30T14:29:28;25.10;62.60
73955;DHT22;62306;52.516;13.290;2023-07-30T14:31:55;25.00;62.80
73955;DHT22;62306;52.516;13.290;2023-07-30T14:34:22;24.80;64.70
73955;DHT22;62306;52.516;13.290;2023-07-30T14:36:49;24.60;66.90
73955;DHT22;62306;52.516;13.290;2023-07-30T14:39:15;24.40;67.30
73955;DHT22;62306;52.516;13.290;2023-07-30T14:41:42;24.10;68.30
73955;DHT22;62306;52.516;13.290;2023-07-30T14:44:11;24.00;70.10
73955;DHT22;62306;52.516;13.290;2023-07-30T14:46:38;23.90;69.00
73955;DHT22;62306;52.516;13.290;2023-07-30T14:49:05;23.90;69.20
73955;DHT22;62306;52.516;13.290;2023-07-30T14:51:32;23.90;69.40
73955;DHT22;62306;52.516;13.290;2023-07-30T14:53:59;23.90;68.90
73955;DHT22;62306;52.516;13.290;2023-07-30T14:56:26;23.70;69.50
73955;DHT22;62306;52.516;13.290;2023-07-30T14:58:53;23.60;71.60
73955;DHT22;62306;52.516;13.290;2023-07-30T15:01:21;23.50;73.90
73955;DHT22;62306;52.516;13.290;2023-07-30T15:03:48;23.30;76.70
73955;DHT22;62306;52.516;13.290;2023-07-30T15:06:17;23.10;79.00
73955;DHT22;62306;52.516;13.290;2023-07-30T15:08:44;22.90;82.00
73955;DHT22;62306;52.516;13.290;2023-07-30T15:11:11;22.60;84.60
73955;DHT22;62306;52.516;13.290;2023-07-30T15:13:39;22.40;87.50
73955;DHT22;62306;52.516;13.290;2023-07-30T15:16:06;22.40;88.50
73955;DHT22;62306;52.516;13.290;2023-07-30T15:18:34;22.40;90.20